Time;durP1;ratioP1;P1;durP2;ratioP2;P2;SDS_P1;SDS_P2;PMS_P1;PMS_P2;Temp;Humidity;BMP_temperature;BMP_pressure;BME280_temperature;BME280_humidity;BME280_pressure;Samples;Min_cycle;Max_cycle;Signal;HPM_P1;HPM_P2
2023/03/16 00:02:24;;;;;;;56.30;10.33;;;15.30;56.20;;;;;;5031605;28;20227;-88
2023/03/16 00:04:51;;;;;;;34.60;7.97;;;15.30;56.20;;;;;;5030358;28;20419;-91
2023/03/16 00:07:19;;;;;;;53.03;9.20;;;15.30;56.20;;;;;;5030999;28;20205;-90
2023/03/16 00:09:48;;;;;;;44.03;8.67;;;15.30;56.10;;;;;;5027644;28;20210;-87
2023/03/16 00:12:17;;;;;;;40.87;8.53;;;15.30;56.10;;;;;;5030835;28;20215;-90
2023/03/16 00:14:45;;;;;;;70.37;10.97;;;15.30;56.20;;;;;;5029609;28;20211;-90
2023/03/16 00:17:17;;;;;;;53.77;9.47;;;15.30;56.20;;;;;;5029901;28;20214;-88
2023/03/16 00:19:46;;;;;;;39.47;8.10;;;15.30;56.20;;;;;;5027920;28;20197;-90
2023/03/16 00:22:14;;;;;;;41.33;8.13;;;15.30;56.20;;;;;;5028777;28;20215;-88
2023/03/16 00:24:42;;;;;;;95.07;12.80;;;15.30;56.20;;;;;;5019784;28;20237;-89
2023/03/16 00:27:14;;;;;;;34.67;7.43;;;15.30;56.20;;;;;;5031022;28;20200;-91
2023/03/16 00:29:46;;;;;;;65.17;9.50;;;15.40;56.20;;;;;;5026444;28;21489;-90
2023/03/16 00:32:18;;;;;;;49.27;9.67;;;15.20;56.10;;;;;;5027156;28;20210;-89
2023/03/16 00:34:46;;;;;;;65.33;9.90;;;15.30;56.20;;;;;;5028484;28;20217;-91
2023/03/16 00:37:15;;;;;;;34.63;8.93;;;15.20;56.10;;;;;;5027554;28;20247;-89
2023/03/16 00:39:43;;;;;;;53.30;9.10;;;15.20;56.10;;;;;;5028298;28;20211;-88
2023/03/16 00:42:12;;;;;;;42.77;9.03;;;15.20;56.10;;;;;;5028436;28;20255;-90
2023/03/16 00:44:41;;;;;;;43.33;8.70;;;15.20;56.10;;;;;;5027332;28;20206;-89
2023/03/16 00:47:13;;;;;;;55.90;9.37;;;15.20;56.10;;;;;;5029903;28;20251;-89
2023/03/16 00:49:41;;;;;;;41.90;8.60;;;15.20;56.10;;;;;;5030235;28;20196;-89
2023/03/16 00:52:13;;;;;;;43.77;8.80;;;15.20;56.10;;;;;;5029032;28;20269;-90
2023/03/16 00:54:41;;;;;;;39.70;7.90;;;15.20;56.70;;;;;;5030281;28;20199;-89
2023/03/16 00:57:09;;;;;;;35.27;8.13;;;15.20;56.10;;;;;;5030230;28;20280;-89
2023/03/16 00:59:36;;;;;;;37.73;7.90;;;15.20;56.10;;;;;;5029429;28;20221;-89
2023/03/16 01:02:06;;;;;;;39.90;8.37;;;15.20;56.10;;;;;;5028147;28;20225;-89
2023/03/16 01:04:34;;;;;;;45.23;8.00;;;15.20;56.10;;;;;;5026548;28;20270;-89
2023/03/16 01:07:02;;;;;;;60.07;9.57;;;15.20;56.10;;;;;;5022958;28;20216;-89
2023/03/16 01:09:29;;;;;;;33.13;7.63;;;15.20;56.10;;;;;;5028626;28;20201;-89
2023/03/16 01:11:55;;;;;;;36.77;7.83;;;15.20;56.10;;;;;;5029160;28;20214;-89
2023/03/16 01:14:24;;;;;;;37.30;8.67;;;15.20;56.10;;;;;;5027909;28;20213;-89
2023/03/16 01:16:50;;;;;;;81.50;11.70;;;15.20;56.10;;;;;;5024661;28;20205;-89
2023/03/16 01:19:19;;;;;;;53.83;8.93;;;15.20;56.10;;;;;;5024885;28;20650;-89
2023/03/16 01:21:46;;;;;;;45.43;8.47;;;15.20;56.10;;;;;;5028992;28;20242;-89
2023/03/16 01:24:12;;;;;;;34.87;7.57;;;15.20;56.20;;;;;;5028030;28;20197;-89
2023/03/16 01:26:39;;;;;;;40.03;7.80;;;15.10;56.10;;;;;;5033106;28;20200;-90
2023/03/16 01:29:06;;;;;;;34.40;7.83;;;15.10;56.00;;;;;;5023121;28;20188;-90
2023/03/16 01:31:33;;;;;;;38.30;8.23;;;15.10;56.00;;;;;;5033343;28;20208;-90
2023/03/16 01:34:02;;;;;;;34.77;7.70;;;15.20;56.10;;;;;;5029094;28;20582;-89
2023/03/16 01:36:31;;;;;;;46.43;8.57;;;15.20;56.10;;;;;;5030249;28;20212;-89
2023/03/16 01:38:59;;;;;;;46.00;7.90;;;15.10;56.10;;;;;;5030037;28;20209;-89
2023/03/16 01:41:25;;;;;;;40.90;8.27;;;15.10;56.00;;;;;;5029838;28;20620;-90
2023/03/16 01:43:57;;;;;;;44.47;8.77;;;15.20;56.10;;;;;;5029776;28;20206;-89
2023/03/16 01:46:25;;;;;;;57.70;9.17;;;15.10;56.00;;;;;;5028664;28;20244;-89
2023/03/16 01:48:58;;;;;;;35.77;7.07;;;15.10;56.10;;;;;;5025055;28;20226;-90
2023/03/16 01:51:29;;;;;;;45.83;8.37;;;15.10;56.10;;;;;;5028741;28;20234;-90
2023/03/16 01:54:01;;;;;;;43.13;8.23;;;15.10;56.10;;;;;;5028090;28;20671;-89
2023/03/16 01:56:34;;;;;;;47.20;8.30;;;15.10;56.10;;;;;;5028623;28;20199;-89
2023/03/16 01:59:05;;;;;;;50.53;8.23;;;15.10;56.00;;;;;;5026461;28;20204;-89
2023/03/16 02:01:33;;;;;;;42.37;7.93;;;15.10;56.10;;;;;;5028123;28;20314;-89
2023/03/16 02:04:08;;;;;;;33.10;7.00;;;15.20;56.10;;;;;;5026081;28;20212;-89
2023/03/16 02:06:35;;;;;;;37.33;7.13;;;15.20;56.10;;;;;;5019977;28;20207;-89
2023/03/16 02:09:06;;;;;;;40.47;8.37;;;15.10;56.10;;;;;;5023900;28;20212;-89
2023/03/16 02:11:35;;;;;;;53.97;9.00;;;15.10;56.10;;;;;;5027117;28;20184;-89
2023/03/16 02:14:08;;;;;;;42.30;7.80;;;15.10;56.10;;;;;;5019214;28;20211;-89
2023/03/16 02:16:35;;;;;;;50.07;8.63;;;15.10;56.10;;;;;;5027530;28;20666;-88
2023/03/16 02:19:02;;;;;;;53.63;9.17;;;15.00;56.00;;;;;;5025682;28;20298;-90
2023/03/16 02:21:35;;;;;;;42.23;7.60;;;15.10;56.00;;;;;;5026869;28;20236;-90
2023/03/16 02:24:04;;;;;;;74.83;10.07;;;15.10;56.10;;;;;;5025896;28;20203;-90
2023/03/16 02:26:37;;;;;;;38.20;7.60;;;15.10;56.00;;;;;;5027403;28;20238;-90
2023/03/16 02:29:17;;;;;;;36.47;7.10;;;15.10;56.10;;;;;;5027132;28;20200;-89
2023/03/16 02:31:46;;;;;;;30.50;6.40;;;15.10;56.00;;;;;;5027677;28;20225;-89
2023/03/16 02:34:15;;;;;;;37.30;7.50;;;15.10;56.10;;;;;;5027454;28;20807;-90
2023/03/16 02:36:45;;;;;;;82.63;11.27;;;15.00;56.00;;;;;;5024588;28;20274;-90
2023/03/16 02:39:12;;;;;;;36.30;7.47;;;15.00;56.00;;;;;;5021706;28;20671;-90
2023/03/16 02:41:40;;;;;;;42.40;7.37;;;15.00;56.00;;;;;;5028755;28;20301;-90
2023/03/16 02:44:13;;;;;;;34.63;7.37;;;15.10;56.00;;;;;;5028448;28;20189;-89
2023/03/16 02:46:42;;;;;;;48.17;8.10;;;15.10;56.10;;;;;;5027160;28;20208;-89
2023/03/16 02:49:16;;;;;;;34.43;7.40;;;15.10;56.10;;;;;;5027663;28;20207;-89
2023/03/16 02:51:43;;;;;;;41.00;7.43;;;15.00;56.00;;;;;;5027895;28;20248;-90
2023/03/16 02:54:10;;;;;;;29.77;7.03;;;15.00;56.00;;;;;;5026667;28;20193;-90
2023/03/16 02:56:37;;;;;;;75.20;10.30;;;15.10;56.00;;;;;;5024927;28;20303;-89
2023/03/16 02:59:04;;;;;;;35.53;7.37;;;15.00;56.00;;;;;;5026688;28;20212;-90
2023/03/16 03:01:33;;;;;;;32.60;6.97;;;15.00;56.60;;;;;;5023845;28;20305;-89
2023/03/16 03:04:00;;;;;;;35.27;7.10;;;15.00;56.00;;;;;;5027547;28;20199;-90
2023/03/16 03:06:29;;;;;;;31.70;6.77;;;15.00;56.00;;;;;;5027452;28;20294;-89
2023/03/16 03:08:56;;;;;;;42.40;7.90;;;15.00;56.00;;;;;;5025550;28;20684;-89
2023/03/16 03:11:23;;;;;;;37.90;7.40;;;15.00;56.00;;;;;;5025469;28;20243;-89
2023/03/16 03:13:52;;;;;;;58.27;9.60;;;15.00;56.00;;;;;;5025145;28;20201;-88
2023/03/16 03:16:20;;;;;;;32.33;6.70;;;15.00;56.00;;;;;;5027406;28;20201;-89
2023/03/16 03:18:47;;;;;;;51.60;8.50;;;15.00;56.00;;;;;;5027541;28;20889;-89
2023/03/16 03:21:14;;;;;;;34.23;6.90;;;15.00;56.00;;;;;;5025395;28;20216;-90
2023/03/16 03:23:46;;;;;;;30.03;6.73;;;15.00;56.00;;;;;;5028569;28;20292;-88
2023/03/16 03:26:17;;;;;;;32.53;6.70;;;15.00;56.00;;;;;;5030975;28;20235;-88
2023/03/16 03:28:44;;;;;;;45.37;7.37;;;15.00;56.00;;;;;;5029715;28;20228;-89
2023/03/16 03:31:16;;;;;;;40.23;7.30;;;15.00;56.00;;;;;;5026912;28;20290;-89
2023/03/16 03:33:43;;;;;;;38.37;7.23;;;15.00;56.00;;;;;;5027009;28;20226;-89
2023/03/16 03:36:12;;;;;;;27.30;6.37;;;15.00;56.00;;;;;;5027127;28;20197;-88
2023/03/16 03:38:40;;;;;;;46.87;7.90;;;15.00;56.00;;;;;;5028101;28;20312;-89
2023/03/16 03:41:08;;;;;;;38.43;7.30;;;15.00;56.00;;;;;;5027785;28;20251;-89
2023/03/16 03:43:35;;;;;;;37.40;7.00;;;15.00;56.00;;;;;;5021946;28;20208;-89
2023/03/16 03:46:03;;;;;;;37.57;7.00;;;15.00;56.00;;;;;;5010966;28;20267;-88
2023/03/16 03:48:30;;;;;;;34.47;6.60;;;15.00;56.00;;;;;;5025487;28;20700;-89
2023/03/16 03:50:57;;;;;;;73.43;9.57;;;15.00;56.00;;;;;;5025395;28;20196;-89
2023/03/16 03:53:24;;;;;;;43.13;7.27;;;14.90;55.90;;;;;;5022930;28;20211;-88
2023/03/16 03:55:52;;;;;;;49.47;8.27;;;14.90;55.90;;;;;;5022055;28;20205;-90
2023/03/16 03:58:20;;;;;;;37.17;7.37;;;14.90;55.90;;;;;;5024567;28;20247;-89
2023/03/16 04:00:47;;;;;;;41.10;7.67;;;14.90;55.90;;;;;;5023679;28;20219;-90
2023/03/16 04:03:15;;;;;;;49.53;8.03;;;14.90;55.90;;;;;;5024953;28;20579;-89
2023/03/16 04:05:41;;;;;;;33.97;6.90;;;14.90;55.90;;;;;;5017839;28;20201;-89
2023/03/16 04:08:08;;;;;;;54.73;8.90;;;14.90;55.90;;;;;;5019164;28;20962;-90
2023/03/16 04:10:35;;;;;;;38.50;6.87;;;14.90;55.90;;;;;;5027070;28;20204;-90
2023/03/16 04:13:02;;;;;;;38.63;7.13;;;14.90;55.90;;;;;;5027141;28;20209;-90
2023/03/16 04:15:31;;;;;;;38.17;7.20;;;14.90;55.90;;;;;;5013387;28;20574;-89
2023/03/16 04:17:58;;;;;;;44.63;7.37;;;14.90;55.90;;;;;;5013480;28;20207;-90
2023/03/16 04:20:25;;;;;;;33.00;6.30;;;14.90;55.90;;;;;;5012714;28;20572;-89
2023/03/16 04:22:57;;;;;;;48.50;7.27;;;14.90;55.90;;;;;;5024017;28;20765;-89
2023/03/16 04:25:25;;;;;;;42.37;7.40;;;14.90;55.90;;;;;;5026729;28;20592;-89
2023/03/16 04:27:52;;;;;;;58.73;8.77;;;14.90;55.90;;;;;;5022405;28;20209;-89
2023/03/16 04:30:19;;;;;;;40.13;7.53;;;14.90;55.90;;;;;;5024338;28;20299;-90
2023/03/16 04:32:47;;;;;;;35.30;7.07;;;14.90;55.90;;;;;;5027620;28;20671;-89
2023/03/16 04:35:15;;;;;;;40.43;7.03;;;14.90;55.90;;;;;;5027005;28;20203;-90
2023/03/16 04:37:42;;;;;;;38.03;6.90;;;14.90;55.90;;;;;;5029752;28;20828;-90
2023/03/16 04:40:15;;;;;;;39.53;7.43;;;14.80;55.80;;;;;;5028259;28;20272;-89
2023/03/16 04:42:42;;;;;;;35.60;6.87;;;14.90;55.90;;;;;;5019896;28;20690;-89
2023/03/16 04:45:10;;;;;;;48.23;8.37;;;14.90;55.90;;;;;;5024604;28;20540;-90
2023/03/16 04:47:37;;;;;;;64.33;9.17;;;14.90;55.90;;;;;;5011280;28;20564;-89
2023/03/16 04:50:09;;;;;;;40.67;7.33;;;14.90;55.90;;;;;;5029435;28;20204;-90
2023/03/16 04:52:36;;;;;;;41.67;7.23;;;14.90;55.90;;;;;;5030314;28;20316;-89
2023/03/16 04:55:03;;;;;;;41.23;6.93;;;14.70;55.90;;;;;;5043887;28;20262;-90
2023/03/16 04:57:31;;;;;;;45.70;7.90;;;14.90;55.90;;;;;;5044543;28;20224;-91
2023/03/16 04:59:58;;;;;;;44.70;7.37;;;14.80;55.80;;;;;;5029680;28;20193;-89
2023/03/16 05:02:25;;;;;;;41.70;7.27;;;14.80;55.90;;;;;;5030110;28;20243;-89
2023/03/16 05:04:54;;;;;;;30.93;6.03;;;14.80;55.80;;;;;;5031240;28;20639;-89
2023/03/16 05:07:22;;;;;;;42.63;7.57;;;14.80;55.90;;;;;;5031211;28;20242;-89
2023/03/16 05:09:49;;;;;;;39.63;7.37;;;14.80;55.90;;;;;;5028774;28;20215;-90
2023/03/16 05:12:16;;;;;;;41.00;7.70;;;14.80;55.90;;;;;;5030625;28;20214;-89
2023/03/16 05:14:42;;;;;;;35.03;6.80;;;14.80;55.90;;;;;;5029914;28;20309;-89
2023/03/16 05:17:09;;;;;;;42.17;7.87;;;14.80;55.80;;;;;;5011227;28;20673;-90
2023/03/16 05:19:36;;;;;;;56.10;8.83;;;14.80;55.80;;;;;;5012578;28;20670;-89
2023/03/16 05:22:03;;;;;;;40.20;6.97;;;14.80;55.90;;;;;;5030741;28;20861;-89
2023/03/16 05:24:32;;;;;;;41.50;6.90;;;14.80;55.80;;;;;;5030621;28;20193;-89
2023/03/16 05:26:58;;;;;;;41.20;7.10;;;14.80;55.80;;;;;;5030899;28;20197;-89
2023/03/16 05:29:26;;;;;;;56.00;8.20;;;14.80;55.80;;;;;;5028119;28;20246;-90
2023/03/16 05:31:52;;;;;;;37.93;7.23;;;14.80;55.80;;;;;;5029398;28;20222;-90
2023/03/16 05:34:19;;;;;;;37.73;7.33;;;14.80;55.80;;;;;;5030794;28;20197;-90
2023/03/16 05:36:47;;;;;;;29.10;6.17;;;14.80;55.80;;;;;;5029886;28;20585;-89
2023/03/16 05:39:14;;;;;;;38.00;7.53;;;14.80;55.80;;;;;;5030535;28;20204;-90
2023/03/16 05:41:42;;;;;;;65.83;9.77;;;14.80;55.80;;;;;;5016487;28;20714;-89
2023/03/16 05:44:09;;;;;;;43.60;7.20;;;14.80;55.80;;;;;;5029222;28;20312;-89
2023/03/16 05:46:36;;;;;;;38.00;6.90;;;14.80;55.80;;;;;;5023374;28;20655;-89
2023/03/16 05:49:03;;;;;;;37.10;7.17;;;14.80;55.80;;;;;;5029808;28;20821;-90
2023/03/16 05:51:33;;;;;;;46.40;7.80;;;14.80;55.90;;;;;;5029303;28;20212;-89
2023/03/16 05:54:00;;;;;;;36.27;6.67;;;14.80;55.80;;;;;;5030141;28;20209;-89
2023/03/16 05:56:28;;;;;;;63.17;9.10;;;14.80;55.80;;;;;;5023475;28;20205;-89
2023/03/16 05:58:57;;;;;;;36.33;7.50;;;14.80;55.80;;;;;;5010120;28;20231;-90
2023/03/16 06:01:24;;;;;;;47.90;8.07;;;14.90;55.90;;;;;;5021381;28;20209;-89
2023/03/16 06:03:51;;;;;;;41.07;7.07;;;14.80;55.80;;;;;;5026527;28;20227;-89
2023/03/16 06:06:20;;;;;;;32.10;6.80;;;14.80;55.80;;;;;;5027616;28;20649;-89
2023/03/16 06:08:48;;;;;;;32.60;6.40;;;14.80;55.80;;;;;;5029389;28;20228;-89
2023/03/16 06:11:17;;;;;;;46.23;7.57;;;14.80;55.80;;;;;;5027609;28;20258;-89
2023/03/16 06:13:44;;;;;;;34.73;7.03;;;14.80;55.80;;;;;;5028822;28;20623;-89
2023/03/16 06:16:13;;;;;;;45.50;7.77;;;14.80;55.80;;;;;;5027761;28;20213;-89
2023/03/16 06:18:40;;;;;;;45.47;8.00;;;14.80;55.80;;;;;;5027106;28;20197;-89
2023/03/16 06:21:07;;;;;;;48.37;8.20;;;14.80;55.80;;;;;;5015420;28;20215;-89
2023/03/16 06:23:34;;;;;;;35.00;7.23;;;14.80;55.80;;;;;;5028307;28;20334;-89
2023/03/16 06:26:01;;;;;;;41.10;7.60;;;14.80;55.80;;;;;;5028551;28;20201;-89
2023/03/16 06:28:28;;;;;;;39.20;7.60;;;14.80;55.80;;;;;;5027245;28;20231;-89
2023/03/16 06:30:55;;;;;;;36.10;7.13;;;14.70;55.70;;;;;;5027309;28;20557;-89
2023/03/16 06:33:24;;;;;;;37.10;7.47;;;14.70;55.70;;;;;;5023494;28;20744;-89
2023/03/16 06:35:51;;;;;;;33.50;7.60;;;14.70;55.70;;;;;;5028397;28;20243;-89
2023/03/16 06:38:19;;;;;;;36.60;6.73;;;14.70;55.70;;;;;;5028625;28;20226;-87
2023/03/16 06:40:45;;;;;;;32.90;6.63;;;14.80;55.80;;;;;;5018076;28;20209;-90
2023/03/16 06:43:12;;;;;;;41.83;7.93;;;14.70;55.70;;;;;;5028598;28;20228;-89
2023/03/16 06:45:40;;;;;;;35.20;6.90;;;14.70;55.70;;;;;;5023463;28;20207;-90
2023/03/16 06:48:08;;;;;;;47.13;7.53;;;14.70;55.70;;;;;;5026152;28;20211;-89
2023/03/16 06:50:36;;;;;;;34.13;6.97;;;14.70;55.70;;;;;;5025072;28;20222;-89
2023/03/16 06:53:03;;;;;;;31.97;6.50;;;14.80;55.80;;;;;;5027129;28;20204;-89
2023/03/16 06:55:30;;;;;;;40.67;6.60;;;14.70;55.70;;;;;;5027601;28;20207;-89
2023/03/16 06:57:57;;;;;;;41.60;7.60;;;14.70;55.70;;;;;;5028839;28;20292;-89
2023/03/16 07:00:26;;;;;;;30.87;6.57;;;14.70;55.70;;;;;;5027496;28;20201;-89
2023/03/16 07:02:53;;;;;;;56.03;8.13;;;14.70;55.70;;;;;;5026441;28;20287;-90
2023/03/16 07:05:20;;;;;;;44.63;7.57;;;14.70;55.70;;;;;;5025078;28;20206;-89
2023/03/16 07:07:48;;;;;;;43.73;7.80;;;14.70;55.70;;;;;;5025530;28;20239;-89
2023/03/16 07:10:18;;;;;;;39.13;6.87;;;14.70;55.70;;;;;;5026057;28;20302;-89
2023/03/16 07:12:45;;;;;;;40.13;7.63;;;14.70;55.70;;;;;;5028534;28;20195;-89
2023/03/16 07:15:12;;;;;;;52.37;8.10;;;14.70;55.70;;;;;;5026162;28;20212;-89
2023/03/16 07:17:41;;;;;;;40.23;7.23;;;14.70;55.80;;;;;;5027036;28;20209;-89
2023/03/16 07:20:11;;;;;;;38.50;7.47;;;14.70;55.70;;;;;;5026694;28;20266;-89
2023/03/16 07:22:39;;;;;;;49.00;7.30;;;14.70;55.70;;;;;;5027635;28;20230;-88
2023/03/16 07:25:10;;;;;;;41.87;7.47;;;14.70;55.70;;;;;;5028079;28;20200;-89
2023/03/16 07:27:37;;;;;;;42.20;7.43;;;14.60;55.70;;;;;;5024894;28;20243;-89
2023/03/16 07:30:05;;;;;;;45.73;7.50;;;14.70;55.70;;;;;;5027010;28;20679;-89
2023/03/16 07:32:32;;;;;;;44.87;7.87;;;14.70;55.70;;;;;;5028031;28;20240;-89
2023/03/16 07:34:59;;;;;;;40.13;7.77;;;14.70;55.70;;;;;;5028260;28;20208;-90
2023/03/16 07:37:26;;;;;;;62.30;8.90;;;14.60;55.70;;;;;;5027390;28;20217;-88
2023/03/16 07:39:53;;;;;;;35.00;6.70;;;14.70;55.70;;;;;;5027435;28;20226;-89
2023/03/16 07:42:22;;;;;;;40.80;7.03;;;14.70;55.70;;;;;;5028648;28;20216;-89
2023/03/16 07:44:50;;;;;;;47.47;7.37;;;14.70;55.70;;;;;;5028230;28;20201;-89
2023/03/16 07:47:17;;;;;;;46.83;7.67;;;14.80;55.80;;;;;;5027725;28;20295;-89
2023/03/16 07:49:44;;;;;;;33.77;6.47;;;14.70;55.70;;;;;;5027851;28;20204;-89
2023/03/16 07:52:12;;;;;;;37.50;7.00;;;14.70;55.70;;;;;;5024922;28;20209;-90
2023/03/16 07:54:39;;;;;;;43.53;7.50;;;14.70;55.70;;;;;;5027254;28;20212;-89
2023/03/16 07:57:07;;;;;;;78.33;10.17;;;14.60;55.60;;;;;;5022174;28;20207;-90
2023/03/16 07:59:37;;;;;;;35.10;6.67;;;14.70;55.70;;;;;;5028273;28;20300;-89
2023/03/16 08:02:04;;;;;;;72.50;9.87;;;14.70;55.70;;;;;;5022049;28;20228;-89
2023/03/16 08:04:31;;;;;;;40.20;7.17;;;14.70;55.70;;;;;;5028139;28;20198;-89
2023/03/16 08:06:59;;;;;;;40.83;7.37;;;14.70;55.70;;;;;;5024449;28;20211;-89
2023/03/16 08:09:26;;;;;;;50.47;7.93;;;14.70;55.70;;;;;;5026960;28;20209;-88
2023/03/16 08:11:53;;;;;;;51.90;8.07;;;14.70;55.70;;;;;;5028632;28;20213;-88
2023/03/16 08:14:20;;;;;;;68.87;9.40;;;14.70;55.70;;;;;;5028379;28;20228;-89
2023/03/16 08:16:48;;;;;;;36.07;6.73;;;14.70;55.70;;;;;;5026734;28;20209;-89
2023/03/16 08:19:16;;;;;;;42.27;7.93;;;14.80;55.80;;;;;;5030142;28;20301;-89
2023/03/16 08:21:43;;;;;;;46.70;7.47;;;14.70;55.80;;;;;;5028915;28;20196;-89
2023/03/16 08:24:10;;;;;;;35.33;6.90;;;14.70;55.70;;;;;;5036785;28;20236;-88
2023/03/16 08:26:37;;;;;;;58.57;8.10;;;14.70;55.70;;;;;;5030540;28;20573;-89
2023/03/16 08:29:04;;;;;;;35.80;6.70;;;14.60;55.70;;;;;;5027263;28;20639;-90
2023/03/16 08:31:33;;;;;;;107.53;11.93;;;14.70;55.70;;;;;;5027190;28;20233;-88
2023/03/16 08:34:02;;;;;;;41.40;7.20;;;14.70;55.70;;;;;;5028909;28;20216;-89
2023/03/16 08:36:29;;;;;;;41.33;6.97;;;14.70;55.70;;;;;;5024988;28;20208;-89
2023/03/16 08:38:57;;;;;;;59.90;9.07;;;14.70;55.70;;;;;;5029172;28;20207;-89
2023/03/16 08:41:24;;;;;;;41.60;7.60;;;14.70;55.70;;;;;;5030414;28;20200;-89
2023/03/16 08:43:51;;;;;;;53.70;8.87;;;14.70;55.80;;;;;;5030008;28;20605;-89
2023/03/16 08:46:20;;;;;;;47.90;7.47;;;14.70;55.80;;;;;;5028234;28;20203;-89
2023/03/16 08:48:47;;;;;;;38.00;7.20;;;14.70;55.70;;;;;;5029332;28;20571;-88
2023/03/16 08:51:16;;;;;;;43.43;7.63;;;14.70;55.70;;;;;;5029639;28;20243;-89
2023/03/16 08:53:44;;;;;;;44.20;8.33;;;14.80;55.80;;;;;;5029882;28;20223;-89
2023/03/16 08:56:13;;;;;;;39.97;7.40;;;14.70;55.70;;;;;;5029795;28;20300;-89
2023/03/16 08:58:44;;;;;;;57.60;8.83;;;14.70;55.70;;;;;;5029639;28;20204;-89
2023/03/16 09:01:12;;;;;;;42.73;6.77;;;14.70;55.70;;;;;;5030327;28;20216;-89
2023/03/16 09:03:39;;;;;;;45.33;7.23;;;14.80;55.80;;;;;;5023103;28;20695;-89
2023/03/16 09:06:08;;;;;;;40.80;7.33;;;14.70;55.70;;;;;;5027665;28;20207;-89
2023/03/16 09:08:39;;;;;;;70.83;9.53;;;14.70;55.70;;;;;;5028173;28;20255;-89
2023/03/16 09:11:11;;;;;;;56.97;8.43;;;14.70;56.40;;;;;;5020148;28;20208;-89
2023/03/16 09:13:39;;;;;;;44.90;7.37;;;14.70;55.70;;;;;;5028019;28;20323;-89
2023/03/16 09:16:07;;;;;;;37.63;6.87;;;14.70;55.70;;;;;;5024820;28;20274;-89
2023/03/16 09:18:35;;;;;;;39.80;6.97;;;14.70;55.70;;;;;;5013803;28;20212;-89
2023/03/16 09:21:05;;;;;;;41.20;6.90;;;14.70;55.80;;;;;;5028007;28;20209;-89
2023/03/16 09:23:33;;;;;;;43.53;7.37;;;14.80;55.80;;;;;;5028241;28;20597;-89
2023/03/16 09:26:03;;;;;;;41.60;6.97;;;14.70;55.70;;;;;;5028160;28;20211;-89
2023/03/16 09:28:31;;;;;;;48.90;7.47;;;14.80;55.80;;;;;;5029306;28;20208;-89
2023/03/16 09:31:48;;;;;;;41.40;7.37;;;14.80;55.80;;;;;;5027342;28;20212;-89
2023/03/16 09:34:15;;;;;;;65.57;9.27;;;14.80;55.80;;;;;;5020009;28;20221;-89
2023/03/16 09:36:42;;;;;;;37.13;6.83;;;14.80;55.80;;;;;;5018581;28;20244;-89
2023/03/16 09:39:10;;;;;;;39.87;7.10;;;14.80;55.80;;;;;;5029343;28;20238;-89
2023/03/16 09:41:46;;;;;;;48.30;7.97;;;14.80;55.80;;;;;;5025169;28;20285;-89
2023/03/16 09:44:31;;;;;;;36.20;6.47;;;14.80;55.80;;;;;;5014776;28;20462;-89
2023/03/16 09:47:01;;;;;;;37.07;6.37;;;14.70;56.20;;;;;;5028026;28;20217;-89
2023/03/16 09:49:35;;;;;;;56.50;8.60;;;14.70;56.10;;;;;;5026219;28;20208;-89
2023/03/16 09:52:11;;;;;;;31.53;5.60;;;14.80;56.00;;;;;;5028278;28;20208;-89
2023/03/16 09:54:46;;;;;;;68.67;8.73;;;14.80;55.90;;;;;;5022022;28;20208;-89
2023/03/16 09:57:23;;;;;;;41.47;6.60;;;14.90;55.90;;;;;;5024043;28;20279;-89
2023/03/16 09:59:51;;;;;;;46.67;8.03;;;14.90;55.90;;;;;;5029041;28;20264;-89
2023/03/16 10:02:56;;;;;;;42.40;7.20;;;14.90;55.90;;;;;;5012982;28;20994;-89
2023/03/16 10:05:24;;;;;;;60.10;8.83;;;14.90;55.90;;;;;;5027393;28;20214;-90
2023/03/16 10:08:03;;;;;;;41.10;6.67;;;14.90;55.90;;;;;;5012249;28;20202;-90
2023/03/16 10:10:45;;;;;;;71.77;9.17;;;14.90;55.90;;;;;;5027751;28;20284;-90
2023/03/16 10:13:23;;;;;;;38.77;6.50;;;14.90;56.00;;;;;;5028120;28;20246;-89
2023/03/16 10:15:52;;;;;;;52.00;8.10;;;14.90;55.90;;;;;;5012625;28;20308;-89
2023/03/16 10:18:23;;;;;;;39.03;6.40;;;14.90;55.90;;;;;;5020820;28;20678;-89
2023/03/16 10:20:54;;;;;;;52.30;7.93;;;14.90;55.90;;;;;;5007512;28;20657;-90
2023/03/16 10:23:24;;;;;;;58.07;8.03;;;14.90;55.90;;;;;;5014902;28;20318;-89
2023/03/16 10:25:52;;;;;;;51.77;7.83;;;14.90;55.90;;;;;;5026432;28;20480;-89
2023/03/16 10:28:22;;;;;;;46.80;7.50;;;14.90;55.90;;;;;;5027527;28;20711;-89
2023/03/16 10:30:53;;;;;;;45.77;7.27;;;15.00;56.00;;;;;;5025158;28;20204;-89
2023/03/16 10:33:24;;;;;;;51.10;7.90;;;15.00;56.00;;;;;;5024023;28;20220;-89
2023/03/16 10:35:56;;;;;;;37.67;7.30;;;15.00;56.00;;;;;;5013170;28;20200;-88
2023/03/16 10:38:32;;;;;;;41.07;6.50;;;15.00;56.00;;;;;;5027922;28;20724;-90
2023/03/16 10:41:00;;;;;;;42.37;6.80;;;15.00;56.00;;;;;;5027895;28;20215;-88
2023/03/16 10:43:30;;;;;;;64.70;8.40;;;15.00;56.00;;;;;;5026623;28;20231;-89
2023/03/16 10:46:02;;;;;;;33.53;6.20;;;15.00;56.00;;;;;;5026951;28;20250;-90
2023/03/16 10:48:34;;;;;;;66.57;8.90;;;15.00;56.00;;;;;;5023639;28;20571;-90
2023/03/16 10:51:06;;;;;;;41.10;6.73;;;15.00;56.00;;;;;;5026927;28;20314;-89
2023/03/16 10:53:39;;;;;;;40.10;6.80;;;15.00;56.00;;;;;;5027221;28;20671;-89
2023/03/16 10:56:12;;;;;;;36.57;6.30;;;15.00;56.00;;;;;;5026903;28;20307;-90
2023/03/16 10:58:42;;;;;;;42.10;7.30;;;15.10;56.10;;;;;;5025315;28;20297;-89
2023/03/16 11:01:19;;;;;;;41.17;6.67;;;15.10;56.10;;;;;;5028318;28;20233;-88
2023/03/16 11:03:51;;;;;;;36.97;6.50;;;15.10;56.10;;;;;;5027387;28;20232;-89
2023/03/16 11:06:21;;;;;;;40.63;6.57;;;15.10;56.10;;;;;;5025730;28;20203;-89
2023/03/16 11:08:48;;;;;;;41.60;6.70;;;15.10;56.10;;;;;;5027156;28;20280;-89
2023/03/16 11:11:31;;;;;;;31.90;6.27;;;15.10;56.60;;;;;;5024478;28;20562;-89
2023/03/16 11:14:01;;;;;;;54.07;7.93;;;15.10;56.10;;;;;;5023729;28;20238;-89
2023/03/16 11:16:35;;;;;;;61.10;8.10;;;15.20;56.10;;;;;;5014274;28;20209;-88
2023/03/16 11:19:11;;;;;;;32.63;6.63;;;15.20;56.20;;;;;;5019596;28;20213;-89
2023/03/16 11:21:48;;;;;;;30.57;6.03;;;15.20;56.10;;;;;;5027167;28;20621;-89
2023/03/16 11:24:21;;;;;;;34.73;6.33;;;15.20;56.10;;;;;;5008183;28;20214;-89
2023/03/16 11:26:54;;;;;;;47.53;7.53;;;15.20;56.10;;;;;;5016593;28;20522;-89
2023/03/16 11:29:32;;;;;;;36.67;6.90;;;15.20;56.10;;;;;;5027080;28;20210;-90
2023/03/16 11:32:04;;;;;;;40.37;7.03;;;15.20;56.10;;;;;;5019035;28;20211;-88
2023/03/16 11:34:33;;;;;;;40.93;7.10;;;15.20;56.10;;;;;;5015827;28;20712;-88
2023/03/16 11:37:09;;;;;;;58.30;8.47;;;15.20;56.10;;;;;;5029096;28;20220;-90
2023/03/16 11:39:46;;;;;;;41.97;6.47;;;15.20;56.10;;;;;;5033071;28;20315;-90
2023/03/16 11:42:30;;;;;;;38.67;6.03;;;15.30;56.20;;;;;;5027627;28;20216;-90
2023/03/16 11:45:06;;;;;;;67.37;9.00;;;15.30;56.30;;;;;;5027036;28;20343;-90
2023/03/16 11:48:00;;;;;;;45.10;6.93;;;15.30;56.30;;;;;;5022060;28;20318;-91
2023/03/16 11:50:35;;;;;;;37.37;6.23;;;15.30;56.30;;;;;;5041981;28;20207;-92
2023/03/16 11:53:08;;;;;;;58.47;8.20;;;15.30;56.20;;;;;;5043758;28;20271;-92
2023/03/16 11:55:41;;;;;;;37.17;6.27;;;15.30;56.30;;;;;;5028750;28;20569;-91
2023/03/16 11:58:31;;;;;;;37.30;6.30;;;15.40;56.30;;;;;;5030543;28;20915;-91
2023/03/16 12:01:18;;;;;;;42.67;6.83;;;15.40;56.40;;;;;;5032002;28;20251;-93
2023/03/16 12:04:06;;;;;;;40.70;6.93;;;15.40;56.30;;;;;;5033237;28;20246;-93
2023/03/16 12:06:53;;;;;;;27.13;5.40;;;15.30;56.30;;;;;;5029920;28;20211;-93
2023/03/16 12:09:49;;;;;;;50.87;7.33;;;15.40;56.40;;;;;;5025686;28;20530;-92
2023/03/16 12:12:29;;;;;;;33.17;6.53;;;15.50;56.50;;;;;;5030435;28;20212;-92
2023/03/16 12:15:13;;;;;;;38.27;6.07;;;15.50;56.50;;;;;;5035559;28;20197;-93
2023/03/16 12:17:44;;;;;;;31.40;5.90;;;15.50;56.60;;;;;;5035623;28;20236;-93
2023/03/16 12:20:18;;;;;;;36.30;6.70;;;15.50;56.50;;;;;;5032383;28;20207;-92
2023/03/16 12:22:49;;;;;;;35.53;6.33;;;15.50;57.20;;;;;;5031720;28;20211;-93
2023/03/16 12:25:28;;;;;;;43.80;6.97;;;15.50;56.60;;;;;;5032460;28;20619;-91
2023/03/16 12:27:59;;;;;;;32.77;6.30;;;15.60;56.60;;;;;;5032370;28;20224;-94
2023/03/16 12:30:36;;;;;;;40.73;6.30;;;15.60;56.60;;;;;;5031868;28;20197;-93
2023/03/16 12:33:13;;;;;;;41.23;6.90;;;15.60;56.60;;;;;;5028063;28;20654;-92
2023/03/16 12:35:46;;;;;;;53.23;7.67;;;15.70;56.70;;;;;;5030290;28;20208;-91
2023/03/16 12:38:31;;;;;;;42.03;6.50;;;15.70;57.30;;;;;;5030428;28;20277;-90
2023/03/16 12:41:09;;;;;;;49.13;7.40;;;15.70;56.70;;;;;;5028218;28;21183;-90
2023/03/16 12:44:01;;;;;;;34.87;6.33;;;15.70;56.70;;;;;;5015878;28;20205;-90
2023/03/16 12:46:36;;;;;;;38.60;6.60;;;15.80;56.80;;;;;;5026969;28;20234;-90
2023/03/16 12:49:06;;;;;;;35.33;6.80;;;15.80;56.70;;;;;;5028579;28;20216;-90
2023/03/16 12:51:34;;;;;;;36.00;6.27;;;15.80;56.70;;;;;;5029796;28;20209;-89